Time;durP1;ratioP1;P1;durP2;ratioP2;P2;SDS_P1;SDS_P2;PMS_P1;PMS_P2;Temp;Humidity;BMP_temperature;BMP_pressure;BME280_temperature;BME280_humidity;BME280_pressure;Samples;Min_cycle;Max_cycle;Signal;HPM_P1;HPM_P2
2022/11/28 00:01:38;;;;;;;;;;;6.20;99.90;;;;;;4935714;28;212685;-72
2022/11/28 00:04:05;;;;;;;;;;;6.20;99.90;;;;;;4972133;28;19946;-72
2022/11/28 00:06:31;;;;;;;;;;;6.20;99.90;;;;;;4967215;28;204897;-72
2022/11/28 00:08:58;;;;;;;;;;;6.20;99.90;;;;;;4988494;28;19948;-72
2022/11/28 00:11:24;;;;;;;;;;;6.30;99.90;;;;;;4930924;28;208970;-72
2022/11/28 00:13:51;;;;;;;;;;;6.20;99.90;;;;;;5020276;28;19933;-72
2022/11/28 00:16:20;;;;;;;;;;;6.20;99.90;;;;;;4953132;28;215758;-73
2022/11/28 00:18:47;;;;;;;;;;;6.20;99.90;;;;;;4953991;28;19933;-72
2022/11/28 00:21:13;;;;;;;;;;;6.20;99.90;;;;;;4942028;28;206670;-73
2022/11/28 00:23:40;;;;;;;;;;;6.20;99.90;;;;;;4964561;28;201502;-72
2022/11/28 00:26:08;;;;;;;;;;;6.20;99.90;;;;;;4990686;28;19923;-73
2022/11/28 00:28:34;;;;;;;;;;;6.20;99.90;;;;;;4983729;28;204999;-73
2022/11/28 00:31:00;;;;;;;;;;;6.20;99.90;;;;;;5006013;28;19937;-72
2022/11/28 00:33:26;;;;;;;;;;;6.20;99.90;;;;;;4970832;28;210398;-73
2022/11/28 00:35:59;;;;;;;;;;;6.20;99.90;;;;;;4981129;28;19925;-72
2022/11/28 00:38:25;;;;;;;;;;;6.20;99.90;;;;;;4973348;28;207206;-72
2022/11/28 00:40:58;;;;;;;;;;;6.30;99.90;;;;;;5005190;28;20013;-72
2022/11/28 00:43:24;;;;;;;;;;;6.20;99.90;;;;;;4974870;28;190448;-71
2022/11/28 00:45:50;;;;;;;;;;;6.20;99.90;;;;;;5009794;28;19922;-72
2022/11/28 00:48:16;;;;;;;;;;;6.30;99.90;;;;;;4984003;28;124528;-72
2022/11/28 00:50:42;;;;;;;;;;;6.20;99.90;;;;;;5007337;28;19930;-71
2022/11/28 00:53:08;;;;;;;;;;;6.20;99.90;;;;;;4977299;28;207581;-72
2022/11/28 00:55:34;;;;;;;;;;;6.30;99.90;;;;;;4978474;28;19963;-72
2022/11/28 00:57:59;;;;;;;;;;;6.30;99.90;;;;;;4962962;28;205069;-72
2022/11/28 01:00:25;;;;;;;;;;;6.30;99.90;;;;;;5006900;28;19926;-72
2022/11/28 01:02:52;;;;;;;;;;;6.30;99.90;;;;;;4964471;28;212457;-72
2022/11/28 01:05:18;;;;;;;;;;;6.30;99.90;;;;;;5007718;28;19922;-72
2022/11/28 01:07:44;;;;;;;;;;;6.30;99.90;;;;;;4961845;28;170196;-72
2022/11/28 01:10:10;;;;;;;;;;;6.30;99.90;;;;;;4980263;28;19934;-72
2022/11/28 01:12:36;;;;;;;;;;;6.30;99.90;;;;;;4962774;28;149086;-73
2022/11/28 01:15:04;;;;;;;;;;;6.30;99.90;;;;;;5008053;28;19931;-73
2022/11/28 01:17:29;;;;;;;;;;;6.30;99.90;;;;;;4978387;28;215475;-73
2022/11/28 01:19:55;;;;;;;;;;;6.30;99.90;;;;;;5006366;28;20000;-73
2022/11/28 01:22:21;;;;;;;;;;;6.30;99.90;;;;;;4936348;28;218002;-73
2022/11/28 01:24:47;;;;;;;;;;;6.30;99.90;;;;;;4972077;28;19932;-73
2022/11/28 01:27:13;;;;;;;;;;;6.30;99.90;;;;;;4953226;28;207584;-73
2022/11/28 01:29:39;;;;;;;;;;;6.30;99.90;;;;;;5005085;28;19922;-72
2022/11/28 01:32:05;;;;;;;;;;;6.30;99.90;;;;;;4963434;28;187539;-73
2022/11/28 01:34:31;;;;;;;;;;;6.30;99.90;;;;;;4998837;28;19926;-73
2022/11/28 01:36:58;;;;;;;;;;;6.40;99.90;;;;;;4944316;28;204817;-74
2022/11/28 01:39:25;;;;;;;;;;;6.40;99.90;;;;;;5005082;28;20398;-74
2022/11/28 01:41:51;;;;;;;;;;;6.40;99.90;;;;;;4952981;28;154417;-74
2022/11/28 01:44:16;;;;;;;;;;;6.40;99.90;;;;;;4993931;28;19922;-75
2022/11/28 01:46:42;;;;;;;;;;;6.40;99.90;;;;;;4959964;28;178748;-74
2022/11/28 01:49:21;;;;;;;;;;;6.40;99.90;;;;;;5003813;28;19926;-75
2022/11/28 01:51:49;;;;;;;;;;;6.50;99.90;;;;;;4962652;28;169969;-74
2022/11/28 01:54:16;;;;;;;;;;;6.50;99.90;;;;;;4990173;28;19933;-74
2022/11/28 01:56:46;;;;;;;;;;;6.50;99.90;;;;;;4929902;28;206836;-74
2022/11/28 01:59:13;;;;;;;;;;;6.50;99.90;;;;;;4998419;28;19930;-73
2022/11/28 02:01:39;;;;;;;;;;;6.50;99.90;;;;;;4920849;28;206168;-72
2022/11/28 02:04:05;;;;;;;;;;;6.50;99.90;;;;;;4964794;28;19930;-72
2022/11/28 02:06:32;;;;;;;;;;;6.50;99.90;;;;;;4934982;28;207439;-73
2022/11/28 02:08:57;;;;;;;;;;;6.50;99.90;;;;;;5001891;28;20386;-73
2022/11/28 02:11:42;;;;;;;;;;;6.50;99.90;;;;;;4944664;28;207476;-72
2022/11/28 02:14:34;;;;;;;;;;;6.50;99.90;;;;;;5017723;28;19930;-72
2022/11/28 02:17:19;;;;;;;;;;;6.50;99.90;;;;;;4949463;28;206466;-73
2022/11/28 02:19:55;;;;;;;;;;;6.50;99.90;;;;;;4986938;28;19933;-72
2022/11/28 02:22:24;;;;;;;;;;;6.50;99.90;;;;;;4963519;28;206634;-72
2022/11/28 02:24:59;;;;;;;;;;;6.50;99.90;;;;;;4988683;28;19922;-72
2022/11/28 02:27:31;;;;;;;;;;;6.50;99.90;;;;;;4949957;28;209056;-72
2022/11/28 02:30:02;;;;;;;;;;;6.50;99.90;;;;;;4996935;28;19922;-73
2022/11/28 02:32:34;;;;;;;;;;;6.50;99.90;;;;;;4955898;28;207607;-72
2022/11/28 02:35:19;;;;;;;;;;;6.50;99.90;;;;;;4983399;28;19933;-72
2022/11/28 02:37:45;;;;;;;;;;;6.50;99.90;;;;;;4954528;28;209939;-72
2022/11/28 02:40:20;;;;;;;;;;;6.50;99.90;;;;;;4982569;28;19922;-73
2022/11/28 02:42:55;;;;;;;;;;;6.50;99.90;;;;;;4943920;28;210058;-72
2022/11/28 02:45:40;;;;;;;;;;;6.50;99.90;;;;;;4976292;28;19937;-73
2022/11/28 02:48:09;;;;;;;;;;;6.50;99.90;;;;;;4962323;28;215669;-72
2022/11/28 02:51:05;;;;;;;;;;;6.60;99.90;;;;;;4974682;28;20594;-73
2022/11/28 02:53:31;;;;;;;;;;;6.60;99.90;;;;;;4869587;29;177252;-73
2022/11/28 02:55:58;;;;;;;;;;;6.60;99.90;;;;;;4912231;29;19931;-73
2022/11/28 02:58:24;;;;;;;;;;;6.60;99.90;;;;;;4861909;29;207085;-72
2022/11/28 03:00:50;;;;;;;;;;;6.60;99.90;;;;;;4899739;29;20644;-72
2022/11/28 03:03:22;;;;;;;;;;;6.60;99.90;;;;;;4859424;29;172396;-73
2022/11/28 03:05:54;;;;;;;;;;;6.60;99.90;;;;;;4915498;29;19927;-73
2022/11/28 03:08:40;;;;;;;;;;;6.60;99.90;;;;;;4851882;29;205598;-73
2022/11/28 03:11:14;;;;;;;;;;;6.60;99.90;;;;;;4908605;29;20440;-74
2022/11/28 03:13:43;;;;;;;;;;;6.60;99.90;;;;;;4866755;29;174510;-73
2022/11/28 03:16:25;;;;;;;;;;;6.70;99.90;;;;;;4914572;29;19927;-74
2022/11/28 03:18:51;;;;;;;;;;;6.60;99.90;;;;;;4876890;29;206153;-74
2022/11/28 03:21:28;;;;;;;;;;;6.70;99.90;;;;;;4897175;28;208418;-71
2022/11/28 03:24:03;;;;;;;;;;;6.70;99.90;;;;;;4910944;29;20384;-71
2022/11/28 03:26:36;;;;;;;;;;;6.60;99.90;;;;;;4868076;29;206920;-73
2022/11/28 03:29:08;;;;;;;;;;;6.70;99.90;;;;;;4901817;29;19923;-73
2022/11/28 03:32:03;;;;;;;;;;;6.70;99.90;;;;;;4940958;28;211992;-72
2022/11/28 03:34:33;;;;;;;;;;;6.70;99.90;;;;;;4965654;28;19949;-73
2022/11/28 03:37:01;;;;;;;;;;;6.70;99.90;;;;;;4930707;28;187941;-72
2022/11/28 03:39:33;;;;;;;;;;;6.80;99.90;;;;;;4975582;28;20315;-72
2022/11/28 03:42:06;;;;;;;;;;;6.70;99.90;;;;;;4938725;28;165775;-73
2022/11/28 03:44:36;;;;;;;;;;;6.80;99.90;;;;;;4991957;28;19922;-73
2022/11/28 03:47:03;;;;;;;;;;;6.80;99.90;;;;;;4944121;28;199506;-73
2022/11/28 03:49:32;;;;;;;;;;;6.80;99.90;;;;;;4994681;28;20355;-72
2022/11/28 03:52:01;;;;;;;;;;;6.90;99.90;;;;;;4928252;28;203539;-72
2022/11/28 03:54:32;;;;;;;;;;;6.80;99.90;;;;;;4974198;28;19922;-73
2022/11/28 03:57:11;;;;;;;;;;;6.90;99.90;;;;;;4944263;28;163443;-73
2022/11/28 03:59:42;;;;;;;;;;;6.90;99.90;;;;;;4992812;28;19934;-72
2022/11/28 04:02:16;;;;;;;;;;;6.90;99.90;;;;;;4919093;28;199112;-72
2022/11/28 04:04:51;;;;;;;;;;;7.00;99.90;;;;;;4968886;28;19926;-72
2022/11/28 04:07:17;;;;;;;;;;;7.00;99.90;;;;;;4940929;28;143944;-73
2022/11/28 04:09:46;;;;;;;;;;;7.00;99.90;;;;;;4974863;28;20655;-72
2022/11/28 04:12:33;;;;;;;;;;;7.00;99.90;;;;;;4964519;28;206747;-72
2022/11/28 04:15:09;;;;;;;;;;;7.00;99.90;;;;;;5009625;28;19922;-73
2022/11/28 04:17:37;;;;;;;;;;;7.00;99.90;;;;;;4961054;28;211518;-72
2022/11/28 04:20:12;;;;;;;;;;;7.00;99.90;;;;;;5005538;28;19926;-71
2022/11/28 04:22:49;;;;;;;;;;;7.10;99.90;;;;;;4953063;28;141167;-72
2022/11/28 04:25:18;;;;;;;;;;;7.10;99.90;;;;;;4970081;28;19926;-72
2022/11/28 04:27:47;;;;;;;;;;;7.10;99.90;;;;;;4957930;28;206560;-72
2022/11/28 04:30:13;;;;;;;;;;;7.10;99.90;;;;;;4970325;28;19938;-71
2022/11/28 04:32:41;;;;;;;;;;;7.10;99.90;;;;;;4954757;28;201749;-72
2022/11/28 04:35:09;;;;;;;;;;;7.10;99.90;;;;;;4981932;28;19929;-71
2022/11/28 04:37:36;;;;;;;;;;;7.20;99.90;;;;;;4965744;28;208099;-71
2022/11/28 04:40:04;;;;;;;;;;;7.10;99.90;;;;;;4977984;28;19925;-72
2022/11/28 04:42:40;;;;;;;;;;;7.20;99.90;;;;;;4949868;28;211939;-71
2022/11/28 04:45:21;;;;;;;;;;;7.20;99.90;;;;;;4989590;28;19922;-72
2022/11/28 04:47:47;;;;;;;;;;;7.20;99.90;;;;;;4950496;28;208133;-72
2022/11/28 04:50:13;;;;;;;;;;;7.20;99.90;;;;;;4993564;28;19922;-71
2022/11/28 04:53:02;;;;;;;;;;;7.20;99.90;;;;;;4955687;28;207229;-71
2022/11/28 04:55:34;;;;;;;;;;;7.20;99.90;;;;;;4959472;28;19926;-72
2022/11/28 04:58:13;;;;;;;;;;;7.30;99.90;;;;;;4902597;28;179102;-72
2022/11/28 05:00:39;;;;;;;;;;;7.30;99.90;;;;;;4954269;28;20410;-71
2022/11/28 05:03:06;;;;;;;;;;;7.30;99.90;;;;;;4895632;28;210290;-71
2022/11/28 05:05:39;;;;;;;;;;;7.30;99.90;;;;;;4976772;28;19929;-71
2022/11/28 05:08:05;;;;;;;;;;;7.30;99.90;;;;;;4915114;28;219389;-71
2022/11/28 05:10:31;;;;;;;;;;;7.30;99.90;;;;;;4951840;28;19985;-71
2022/11/28 05:12:57;;;;;;;;;;;7.30;99.90;;;;;;4923288;28;179901;-73
2022/11/28 05:15:23;;;;;;;;;;;7.30;99.90;;;;;;4953427;28;19929;-73
2022/11/28 05:17:49;;;;;;;;;;;7.30;99.90;;;;;;4907345;28;207109;-71
2022/11/28 05:20:15;;;;;;;;;;;7.30;99.90;;;;;;4948435;28;19946;-71
2022/11/28 05:22:41;;;;;;;;;;;7.40;99.90;;;;;;4923393;28;207044;-72
2022/11/28 05:25:07;;;;;;;;;;;7.40;99.90;;;;;;4950023;28;19922;-71
2022/11/28 05:27:33;;;;;;;;;;;7.40;99.90;;;;;;4926599;28;208332;-73
2022/11/28 05:29:59;;;;;;;;;;;7.40;99.90;;;;;;4960122;28;20070;-72
2022/11/28 05:32:27;;;;;;;;;;;7.40;99.90;;;;;;4938037;28;206832;-73
2022/11/28 05:34:53;;;;;;;;;;;7.40;99.90;;;;;;4983427;28;20410;-72
2022/11/28 05:37:19;;;;;;;;;;;7.40;99.90;;;;;;4947836;28;206106;-72
2022/11/28 05:39:45;;;;;;;;;;;7.40;99.90;;;;;;5001477;28;20305;-72
2022/11/28 05:42:11;;;;;;;;;;;7.40;99.90;;;;;;4928565;28;220730;-73
2022/11/28 05:44:38;;;;;;;;;;;7.40;99.90;;;;;;4960562;28;19989;-72
2022/11/28 05:47:04;;;;;;;;;;;7.50;99.90;;;;;;4929436;28;208411;-73
2022/11/28 05:49:30;;;;;;;;;;;7.40;99.90;;;;;;5009976;28;20630;-72
2022/11/28 05:51:55;;;;;;;;;;;7.50;99.90;;;;;;4948960;28;209008;-73
2022/11/28 05:54:21;;;;;;;;;;;7.50;99.90;;;;;;4967890;28;19922;-72
2022/11/28 05:56:47;;;;;;;;;;;7.50;99.90;;;;;;4926831;28;207699;-73
2022/11/28 05:59:13;;;;;;;;;;;7.50;99.90;;;;;;4973041;28;19953;-72
2022/11/28 06:01:39;;;;;;;;;;;7.50;99.90;;;;;;4956170;28;129441;-73
2022/11/28 06:04:05;;;;;;;;;;;7.60;99.90;;;;;;4998277;28;19952;-72
2022/11/28 06:06:32;;;;;;;;;;;7.60;99.90;;;;;;4953984;28;210775;-72
2022/11/28 06:08:58;;;;;;;;;;;7.50;99.90;;;;;;5001385;28;19926;-72
2022/11/28 06:11:25;;;;;;;;;;;7.60;99.90;;;;;;4954179;28;205952;-72
2022/11/28 06:13:51;;;;;;;;;;;7.60;99.90;;;;;;5010666;28;19933;-72
2022/11/28 06:16:18;;;;;;;;;;;7.60;99.90;;;;;;4981531;28;218742;-72
2022/11/28 06:18:44;;;;;;;;;;;7.60;99.90;;;;;;4987493;28;19941;-72
2022/11/28 06:21:11;;;;;;;;;;;7.60;99.90;;;;;;4989311;28;19929;-72
2022/11/28 06:23:37;;;;;;;;;;;7.60;99.90;;;;;;4963285;28;35786;-72
2022/11/28 06:26:07;;;;;;;;;;;7.60;99.90;;;;;;5003276;28;19933;-72
2022/11/28 06:28:33;;;;;;;;;;;7.60;99.90;;;;;;4963870;28;207951;-73
2022/11/28 06:31:00;;;;;;;;;;;7.60;99.90;;;;;;4975519;28;19933;-73
2022/11/28 06:33:26;;;;;;;;;;;7.60;99.90;;;;;;4968463;28;207263;-73
2022/11/28 06:35:57;;;;;;;;;;;7.60;99.90;;;;;;5004015;28;19922;-72
2022/11/28 06:38:23;;;;;;;;;;;7.60;99.90;;;;;;4981328;28;141159;-72
2022/11/28 06:40:49;;;;;;;;;;;7.60;99.90;;;;;;4986254;28;19932;-72
2022/11/28 06:43:15;;;;;;;;;;;7.60;99.90;;;;;;4972985;28;215646;-72
2022/11/28 06:45:41;;;;;;;;;;;7.60;99.90;;;;;;4972474;28;19941;-72
2022/11/28 06:48:07;;;;;;;;;;;7.60;99.90;;;;;;4945706;28;224142;-72
2022/11/28 06:50:33;;;;;;;;;;;7.60;99.90;;;;;;4985257;28;20308;-72
2022/11/28 06:52:59;;;;;;;;;;;7.60;99.90;;;;;;4940979;28;207025;-72
2022/11/28 06:55:25;;;;;;;;;;;7.60;99.90;;;;;;4980446;28;19933;-72
2022/11/28 06:57:50;;;;;;;;;;;7.60;99.90;;;;;;4955126;28;158283;-72
2022/11/28 07:00:16;;;;;;;;;;;7.60;99.90;;;;;;4972189;28;19949;-72
2022/11/28 07:02:42;;;;;;;;;;;7.60;99.90;;;;;;4959956;28;171285;-72
2022/11/28 07:05:08;;;;;;;;;;;7.60;99.90;;;;;;5001426;28;20406;-72
2022/11/28 07:07:34;;;;;;;;;;;7.70;99.90;;;;;;4948974;28;210053;-73
2022/11/28 07:10:00;;;;;;;;;;;7.70;99.90;;;;;;4983288;28;19927;-72
2022/11/28 07:12:26;;;;;;;;;;;7.70;99.90;;;;;;4959039;28;179829;-72
2022/11/28 07:14:52;;;;;;;;;;;7.60;99.90;;;;;;4993961;28;19922;-73
2022/11/28 07:17:18;;;;;;;;;;;7.70;99.90;;;;;;4968270;28;208762;-73
2022/11/28 07:19:44;;;;;;;;;;;7.70;99.90;;;;;;5016613;28;19922;-72
2022/11/28 07:22:10;;;;;;;;;;;7.70;99.90;;;;;;4960740;28;165698;-72
2022/11/28 07:24:36;;;;;;;;;;;7.60;99.90;;;;;;4996852;28;19929;-72
2022/11/28 07:27:02;;;;;;;;;;;7.70;99.90;;;;;;4929590;28;207509;-74
2022/11/28 07:29:34;;;;;;;;;;;7.70;99.90;;;;;;4975613;28;19922;-73
2022/11/28 07:32:01;;;;;;;;;;;7.70;99.90;;;;;;4928255;28;205491;-73
2022/11/28 07:34:27;;;;;;;;;;;7.70;99.90;;;;;;4994943;28;19926;-73
2022/11/28 07:36:53;;;;;;;;;;;7.70;99.90;;;;;;4957862;28;205927;-73
2022/11/28 07:39:20;;;;;;;;;;;7.70;99.90;;;;;;4972191;28;19925;-73
2022/11/28 07:41:45;;;;;;;;;;;7.70;99.90;;;;;;4965493;28;138850;-73
2022/11/28 07:44:12;;;;;;;;;;;7.70;99.90;;;;;;5015185;28;20024;-72
2022/11/28 07:46:38;;;;;;;;;;;7.70;99.90;;;;;;4962234;28;196435;-73
2022/11/28 07:49:04;;;;;;;;;;;7.70;99.90;;;;;;5012112;28;19933;-72
2022/11/28 07:51:31;;;;;;;;;;;7.70;99.90;;;;;;4956836;28;206303;-73
2022/11/28 07:53:57;;;;;;;;;;;7.70;99.90;;;;;;4967682;28;19930;-73
2022/11/28 07:56:25;;;;;;;;;;;7.70;99.90;;;;;;4918194;28;209527;-73
2022/11/28 07:58:51;;;;;;;;;;;7.70;99.90;;;;;;5016733;28;19926;-73
2022/11/28 08:01:21;;;;;;;;;;;7.70;99.90;;;;;;4961114;28;216233;-72
2022/11/28 08:03:47;;;;;;;;;;;7.70;99.90;;;;;;4965564;28;19922;-72
2022/11/28 08:06:15;;;;;;;;;;;7.70;99.90;;;;;;4960869;28;207163;-72
2022/11/28 08:08:41;;;;;;;;;;;7.70;99.90;;;;;;4969268;28;209481;-73
2022/11/28 08:11:08;;;;;;;;;;;7.70;99.90;;;;;;4994051;28;20307;-72
2022/11/28 08:13:34;;;;;;;;;;;7.70;99.90;;;;;;4976881;28;206851;-73
2022/11/28 08:16:05;;;;;;;;;;;7.70;99.90;;;;;;5010998;28;20474;-72
2022/11/28 08:18:31;;;;;;;;;;;7.70;99.90;;;;;;4983501;28;94183;-73
2022/11/28 08:21:03;;;;;;;;;;;7.70;99.90;;;;;;4990901;28;19926;-73
2022/11/28 08:23:29;;;;;;;;;;;7.70;99.90;;;;;;4987559;28;32046;-73
2022/11/28 08:25:55;;;;;;;;;;;7.70;99.90;;;;;;4974883;28;19929;-73
2022/11/28 08:28:21;;;;;;;;;;;7.70;99.90;;;;;;4978483;28;167671;-73
2022/11/28 08:30:47;;;;;;;;;;;7.80;99.90;;;;;;4987777;28;19922;-73
2022/11/28 08:33:13;;;;;;;;;;;7.70;99.90;;;;;;4959138;28;205681;-73
2022/11/28 08:35:39;;;;;;;;;;;7.70;99.90;;;;;;4977402;28;19929;-73
2022/11/28 08:38:05;;;;;;;;;;;7.70;99.90;;;;;;4951967;28;208558;-73
2022/11/28 08:40:31;;;;;;;;;;;7.80;99.90;;;;;;4975716;28;19932;-73
2022/11/28 08:42:57;;;;;;;;;;;7.80;99.90;;;;;;4961708;28;164620;-73
2022/11/28 08:45:23;;;;;;;;;;;7.70;99.90;;;;;;4974367;28;19922;-73
2022/11/28 08:47:49;;;;;;;;;;;7.80;99.90;;;;;;4973221;28;199747;-73
2022/11/28 08:50:15;;;;;;;;;;;7.80;99.90;;;;;;4980038;28;20298;-72
2022/11/28 08:52:40;;;;;;;;;;;7.80;99.90;;;;;;4978007;28;207054;-73
2022/11/28 08:55:07;;;;;;;;;;;7.80;99.90;;;;;;5007691;28;19929;-73
2022/11/28 08:57:32;;;;;;;;;;;7.80;99.90;;;;;;4974961;28;119922;-73
2022/11/28 08:59:58;;;;;;;;;;;7.80;99.90;;;;;;5011727;28;19933;-73
2022/11/28 09:02:24;;;;;;;;;;;7.80;99.90;;;;;;4959512;28;177551;-73
2022/11/28 09:04:50;;;;;;;;;;;7.80;99.90;;;;;;4986098;28;19926;-73
2022/11/28 09:07:16;;;;;;;;;;;7.80;99.90;;;;;;4950835;28;209703;-73
2022/11/28 09:09:42;;;;;;;;;;;7.80;99.90;;;;;;5009680;28;19957;-73
2022/11/28 09:12:08;;;;;;;;;;;7.90;99.90;;;;;;4965909;28;192101;-71
2022/11/28 09:14:34;;;;;;;;;;;7.90;99.90;;;;;;4996833;28;19926;-71
2022/11/28 09:17:00;;;;;;;;;;;7.90;99.90;;;;;;4947362;28;223909;-72
2022/11/28 09:19:26;;;;;;;;;;;7.90;99.90;;;;;;4999368;28;19921;-72
2022/11/28 09:21:51;;;;;;;;;;;7.90;99.90;;;;;;4952327;28;155042;-72
2022/11/28 09:24:17;;;;;;;;;;;7.90;99.90;;;;;;4997235;28;19928;-72
2022/11/28 09:26:43;;;;;;;;;;;7.80;99.90;;;;;;4945992;28;208316;-73
2022/11/28 09:29:11;;;;;;;;;;;7.90;99.90;;;;;;4989690;28;20401;-72
2022/11/28 09:31:37;;;;;;;;;;;7.90;99.90;;;;;;4929974;28;208111;-72
2022/11/28 09:34:03;;;;;;;;;;;7.90;99.90;;;;;;5007220;28;19930;-72
2022/11/28 09:36:30;;;;;;;;;;;7.90;99.90;;;;;;4966293;28;211531;-73
2022/11/28 09:38:58;;;;;;;;;;;8.00;99.90;;;;;;5001116;28;20248;-73
2022/11/28 09:41:27;;;;;;;;;;;8.00;99.90;;;;;;4927466;28;211601;-73
2022/11/28 09:44:07;;;;;;;;;;;7.90;99.90;;;;;;4989707;28;19926;-72
2022/11/28 09:46:34;;;;;;;;;;;8.00;99.90;;;;;;4917293;28;207642;-72
2022/11/28 09:49:01;;;;;;;;;;;8.00;99.90;;;;;;5002231;28;19926;-73
2022/11/28 09:51:35;;;;;;;;;;;8.10;99.90;;;;;;4953906;28;209672;-73
2022/11/28 09:54:04;;;;;;;;;;;8.10;99.90;;;;;;4986555;28;19936;-72
2022/11/28 09:56:30;;;;;;;;;;;8.10;99.90;;;;;;4964049;28;207836;-73
2022/11/28 09:59:01;;;;;;;;;;;8.10;99.90;;;;;;5000904;28;20359;-72
2022/11/28 10:01:36;;;;;;;;;;;8.10;99.90;;;;;;4939144;28;218640;-73
2022/11/28 10:04:05;;;;;;;;;;;8.10;99.90;;;;;;5004489;28;20388;-73
2022/11/28 10:06:34;;;;;;;;;;;8.10;99.90;;;;;;4942958;28;209014;-72
2022/11/28 10:09:00;;;;;;;;;;;8.10;99.90;;;;;;4998791;28;20399;-72
2022/11/28 10:11:29;;;;;;;;;;;8.10;99.90;;;;;;4952688;28;207227;-73
2022/11/28 10:13:58;;;;;;;;;;;8.10;99.90;;;;;;4970461;28;19934;-72
2022/11/28 10:16:24;;;;;;;;;;;8.10;99.90;;;;;;4955441;28;210441;-72
2022/11/28 10:18:53;;;;;;;;;;;8.10;99.90;;;;;;5009962;28;20273;-73
2022/11/28 10:21:31;;;;;;;;;;;8.10;99.90;;;;;;4973473;28;206595;-73
2022/11/28 10:24:03;;;;;;;;;;;8.20;99.90;;;;;;5006577;28;20036;-73
2022/11/28 10:26:36;;;;;;;;;;;8.20;99.90;;;;;;4943177;28;203120;-73
2022/11/28 10:29:22;;;;;;;;;;;8.20;99.90;;;;;;5017254;28;19922;-73
2022/11/28 10:31:49;;;;;;;;;;;8.20;99.90;;;;;;4941318;28;26051;-73
2022/11/28 10:34:21;;;;;;;;;;;8.20;99.90;;;;;;5001314;28;19934;-73
2022/11/28 10:36:55;;;;;;;;;;;8.20;99.90;;;;;;4958750;28;212889;-73
2022/11/28 10:39:23;;;;;;;;;;;8.20;99.90;;;;;;4988644;28;19922;-73
2022/11/28 10:42:11;;;;;;;;;;;8.30;99.90;;;;;;4930531;28;214774;-73
2022/11/28 10:44:55;;;;;;;;;;;8.30;99.90;;;;;;4975926;28;19931;-74
2022/11/28 10:47:21;;;;;;;;;;;8.30;99.90;;;;;;4939323;28;210747;-74
2022/11/28 10:49:59;;;;;;;;;;;8.30;99.90;;;;;;4998437;28;20008;-75
2022/11/28 10:52:38;;;;;;;;;;;8.30;99.90;;;;;;4960547;28;189799;-74
2022/11/28 10:55:18;;;;;;;;;;;8.30;99.90;;;;;;4985697;28;19933;-74
2022/11/28 10:57:53;;;;;;;;;;;8.30;99.90;;;;;;4962018;28;202838;-75
2022/11/28 11:00:19;;;;;;;;;;;8.30;99.90;;;;;;4989639;28;20312;-74
2022/11/28 11:02:48;;;;;;;;;;;8.40;99.90;;;;;;4942347;28;212816;-75
2022/11/28 11:05:15;;;;;;;;;;;8.30;99.90;;;;;;5014911;28;19942;-74
2022/11/28 11:07:51;;;;;;;;;;;8.40;99.90;;;;;;4972973;28;169629;-74
2022/11/28 11:10:24;;;;;;;;;;;8.40;99.90;;;;;;5011775;28;19930;-74
2022/11/28 11:12:51;;;;;;;;;;;8.40;99.90;;;;;;4964133;28;102171;-74
2022/11/28 11:15:17;;;;;;;;;;;8.40;99.90;;;;;;5006622;28;19933;-74
2022/11/28 11:17:43;;;;;;;;;;;8.40;99.90;;;;;;4982889;28;202895;-74
2022/11/28 11:20:22;;;;;;;;;;;8.40;99.90;;;;;;5008446;28;19929;-74
2022/11/28 11:22:53;;;;;;;;;;;8.40;99.90;;;;;;4957642;28;207425;-74
2022/11/28 11:25:19;;;;;;;;;;;8.50;99.90;;;;;;4984590;28;19929;-74
2022/11/28 11:27:46;;;;;;;;;;;8.50;99.90;;;;;;4935141;28;205971;-74
2022/11/28 11:30:33;;;;;;;;;;;8.50;99.90;;;;;;4969649;28;20379;-74
2022/11/28 11:33:00;;;;;;;;;;;8.60;99.90;;;;;;4968783;28;182034;-73
2022/11/28 11:35:31;;;;;;;;;;;8.60;99.90;;;;;;4978448;28;19937;-74
2022/11/28 11:38:16;;;;;;;;;;;8.70;99.90;;;;;;4964379;28;204440;-73
2022/11/28 11:40:42;;;;;;;;;;;8.70;99.90;;;;;;5004049;28;19941;-73
2022/11/28 11:43:23;;;;;;;;;;;8.70;99.90;;;;;;4960054;28;205535;-73
2022/11/28 11:46:03;;;;;;;;;;;8.60;99.90;;;;;;4997477;28;19926;-72
2022/11/28 11:48:39;;;;;;;;;;;8.70;99.90;;;;;;4977713;28;226687;-73
2022/11/28 11:51:06;;;;;;;;;;;8.70;99.90;;;;;;5007215;28;20299;-71
2022/11/28 11:53:32;;;;;;;;;;;8.70;99.90;;;;;;4978316;28;166064;-73
2022/11/28 11:56:01;;;;;;;;;;;8.70;99.90;;;;;;4976538;28;19933;-73
2022/11/28 11:58:33;;;;;;;;;;;8.70;99.90;;;;;;4983249;28;172883;-73
2022/11/28 12:00:59;;;;;;;;;;;8.70;99.90;;;;;;5010509;28;20732;-73
2022/11/28 12:03:38;;;;;;;;;;;8.80;99.90;;;;;;4976105;28;114319;-73
2022/11/28 12:06:09;;;;;;;;;;;8.80;99.90;;;;;;5012788;28;19935;-73
2022/11/28 12:08:38;;;;;;;;;;;8.70;99.90;;;;;;4958160;28;198470;-73
2022/11/28 12:11:13;;;;;;;;;;;8.80;99.90;;;;;;4978882;28;19937;-73
2022/11/28 12:13:39;;;;;;;;;;;8.80;99.90;;;;;;4951797;28;207283;-73
2022/11/28 12:16:24;;;;;;;;;;;8.80;99.90;;;;;;5007159;28;20466;-73
2022/11/28 12:19:09;;;;;;;;;;;8.80;99.90;;;;;;4940881;28;207849;-73
2022/11/28 12:21:35;;;;;;;;;;;8.80;99.90;;;;;;4961321;28;216675;-73
2022/11/28 12:24:01;;;;;;;;;;;8.80;99.90;;;;;;5018448;28;19941;-73
2022/11/28 12:26:38;;;;;;;;;;;8.90;99.90;;;;;;4942928;28;212015;-73
2022/11/28 12:29:10;;;;;;;;;;;8.80;99.90;;;;;;4999759;28;20319;-73
2022/11/28 12:31:42;;;;;;;;;;;8.90;99.90;;;;;;4927888;28;209346;-74
2022/11/28 12:34:26;;;;;;;;;;;8.90;99.90;;;;;;5016778;28;19945;-74
2022/11/28 12:37:07;;;;;;;;;;;8.90;99.90;;;;;;4933675;28;209910;-74
2022/11/28 12:39:52;;;;;;;;;;;8.90;99.90;;;;;;4985881;28;19922;-74
2022/11/28 12:42:23;;;;;;;;;;;8.90;99.90;;;;;;4947954;28;84225;-74
2022/11/28 12:44:56;;;;;;;;;;;8.90;99.90;;;;;;5004632;28;19926;-74
2022/11/28 12:47:40;;;;;;;;;;;8.90;99.90;;;;;;4956818;28;212927;-74
2022/11/28 12:50:07;;;;;;;;;;;8.90;99.90;;;;;;5008754;28;19926;-73
2022/11/28 12:52:48;;;;;;;;;;;9.00;99.90;;;;;;4972168;28;207984;-73
2022/11/28 12:55:20;;;;;;;;;;;8.90;99.90;;;;;;4981773;28;19945;-73
2022/11/28 12:57:54;;;;;;;;;;;8.90;99.90;;;;;;4978659;28;137755;-73
2022/11/28 13:00:23;;;;;;;;;;;8.90;99.90;;;;;;4977216;28;20291;-73
2022/11/28 13:03:07;;;;;;;;;;;8.90;99.90;;;;;;4950541;28;206461;-73
2022/11/28 13:05:39;;;;;;;;;;;8.90;99.90;;;;;;4980238;28;19937;-73
2022/11/28 13:08:26;;;;;;;;;;;8.90;99.90;;;;;;4959288;28;205816;-73
2022/11/28 13:11:00;;;;;;;;;;;8.90;99.90;;;;;;4953872;28;19923;-74
2022/11/28 13:13:53;;;;;;;;;;;8.90;99.90;;;;;;4948799;28;215318;-73
2022/11/28 13:16:19;;;;;;;;;;;8.90;99.90;;;;;;4925978;28;208355;-73
2022/11/28 13:18:47;;;;;;;;;;;9.00;99.90;;;;;;4931106;28;20013;-72
2022/11/28 13:21:13;;;;;;;;;;;8.90;99.90;;;;;;4971510;28;207334;-73
2022/11/28 13:23:39;;;;;;;;;;;8.90;99.90;;;;;;4997681;28;63485;-73
2022/11/28 13:26:09;;;;;;;;;;;8.90;99.90;;;;;;4975501;28;19960;-74
2022/11/28 13:28:53;;;;;;;;;;;8.90;99.90;;;;;;4976290;28;196319;-74
2022/11/28 13:31:38;;;;;;;;;;;8.90;99.90;;;;;;4975767;28;209804;-73
2022/11/28 13:34:10;;;;;;;;;;;8.90;99.90;;;;;;5017692;28;19930;-73
2022/11/28 13:36:43;;;;;;;;;;;8.90;99.90;;;;;;4965931;28;150713;-73
2022/11/28 13:39:28;;;;;;;;;;;8.90;99.90;;;;;;4983549;28;19929;-74
2022/11/28 13:42:01;;;;;;;;;;;8.90;99.90;;;;;;4938599;28;206244;-73
2022/11/28 13:44:32;;;;;;;;;;;8.90;99.90;;;;;;4994935;28;19930;-73
2022/11/28 13:47:11;;;;;;;;;;;8.90;99.90;;;;;;4953266;28;207155;-74
2022/11/28 13:49:37;;;;;;;;;;;8.90;99.90;;;;;;4993095;28;20424;-74
2022/11/28 13:52:18;;;;;;;;;;;8.90;99.90;;;;;;4958866;28;212069;-73
2022/11/28 13:54:44;;;;;;;;;;;8.90;99.90;;;;;;5006678;28;19933;-73
2022/11/28 13:57:16;;;;;;;;;;;8.80;99.90;;;;;;4952110;28;162675;-73
2022/11/28 14:00:08;;;;;;;;;;;8.90;99.90;;;;;;5002433;28;19933;-74
2022/11/28 14:02:34;;;;;;;;;;;8.90;99.90;;;;;;4893961;28;176255;-73
2022/11/28 14:05:01;;;;;;;;;;;8.90;99.90;;;;;;4935533;28;19934;-74
2022/11/28 14:07:28;;;;;;;;;;;8.90;99.90;;;;;;4900613;28;204707;-74
2022/11/28 14:10:07;;;;;;;;;;;8.80;99.90;;;;;;4937949;28;19926;-74
2022/11/28 14:12:52;;;;;;;;;;;8.90;99.90;;;;;;4907533;28;206954;-74
2022/11/28 14:15:21;;;;;;;;;;;8.80;99.90;;;;;;4939127;28;19923;-72
2022/11/28 14:18:05;;;;;;;;;;;8.80;99.90;;;;;;4890939;29;185158;-74
2022/11/28 14:20:31;;;;;;;;;;;8.80;99.90;;;;;;4934280;29;19922;-73
2022/11/28 14:23:15;;;;;;;;;;;8.80;99.90;;;;;;4878529;28;169309;-74
2022/11/28 14:25:43;;;;;;;;;;;8.80;99.90;;;;;;4950484;28;19926;-73
2022/11/28 14:28:18;;;;;;;;;;;8.80;99.90;;;;;;4871687;29;206401;-73
2022/11/28 14:30:45;;;;;;;;;;;8.80;99.90;;;;;;4935737;28;19926;-73
2022/11/28 14:33:29;;;;;;;;;;;8.80;99.90;;;;;;4906339;28;150454;-73
2022/11/28 14:35:55;;;;;;;;;;;8.70;99.90;;;;;;4936744;29;19930;-73
2022/11/28 14:38:27;;;;;;;;;;;8.80;99.90;;;;;;4894661;28;205003;-73
2022/11/28 14:40:56;;;;;;;;;;;8.70;99.90;;;;;;4984693;28;19922;-73